Terminal Aerodrome Forecast
Issued by NWS Memphis, TN

Home | Current Version | Previous Version | Text Only | Print | Product List | Glossary On
Versions: 1 2 3 4 5 6 7 8 9 10 11 12 13 14 15 16 17
032
FTUS44 KMEG 292320
TAFMKL
TAF
KMKL 292320Z 3000/3024 17008KT P6SM FEW050 OVC150
     FM300600 17010G16KT P6SM VCSH SCT050 OVC100 WS020/20045KT
     FM301100 18012G18KT 6SM -TSRA BKN018CB OVC035
     FM301500 19015G22KT P6SM VCTS SCT025CB BKN050
      TEMPO 3017/3021 VRB20G35KT 1SM +TSRA BKN025CB OVC035
     FM302200 23010G16KT P6SM VCSH SCT035 OVC080=

USA.gov is the U.S. government's official web portal to all federal, state and local government web resources and services.